sensor_id;sensor_type;location;lat;lon;timestamp;pressure;altitude;pressure_sealevel;temperature;humidity
55540;BME280;41384;51.418;7.286;2022-11-20T00:00:47;99487.25;;;1.36;76.79
55540;BME280;41384;51.418;7.286;2022-11-20T00:03:12;99478.94;;;1.67;76.68
55540;BME280;41384;51.418;7.286;2022-11-20T00:05:37;99482.97;;;1.27;77.06
55540;BME280;41384;51.418;7.286;2022-11-20T00:08:03;99482.06;;;1.10;79.29
55540;BME280;41384;51.418;7.286;2022-11-20T00:10:29;99466.31;;;1.46;78.18
55540;BME280;41384;51.418;7.286;2022-11-20T00:12:54;99474.81;;;1.22;79.07
55540;BME280;41384;51.418;7.286;2022-11-20T00:15:19;99471.00;;;1.34;79.41
55540;BME280;41384;51.418;7.286;2022-11-20T00:17:44;99468.59;;;1.14;81.06
55540;BME280;41384;51.418;7.286;2022-11-20T00:20:10;99466.25;;;1.29;81.77
55540;BME280;41384;51.418;7.286;2022-11-20T00:22:35;99468.13;;;1.45;82.24
55540;BME280;41384;51.418;7.286;2022-11-20T00:25:01;99466.81;;;1.41;83.00
55540;BME280;41384;51.418;7.286;2022-11-20T00:27:26;99470.28;;;1.58;81.94
55540;BME280;41384;51.418;7.286;2022-11-20T00:29:51;99466.81;;;1.84;82.05
55540;BME280;41384;51.418;7.286;2022-11-20T00:32:16;99458.47;;;1.72;82.50
55540;BME280;41384;51.418;7.286;2022-11-20T00:34:42;99465.69;;;1.87;81.98
55540;BME280;41384;51.418;7.286;2022-11-20T00:37:07;99467.56;;;2.19;81.20
55540;BME280;41384;51.418;7.286;2022-11-20T00:39:32;99461.13;;;1.89;81.60
55540;BME280;41384;51.418;7.286;2022-11-20T00:41:57;99476.25;;;1.85;81.12
55540;BME280;41384;51.418;7.286;2022-11-20T00:44:23;99475.34;;;1.60;84.01
55540;BME280;41384;51.418;7.286;2022-11-20T00:46:48;99473.22;;;2.07;82.86
55540;BME280;41384;51.418;7.286;2022-11-20T00:49:13;99474.66;;;1.93;80.93
55540;BME280;41384;51.418;7.286;2022-11-20T00:51:38;99475.22;;;2.21;80.60
55540;BME280;41384;51.418;7.286;2022-11-20T00:54:04;99472.94;;;2.26;80.26
55540;BME280;41384;51.418;7.286;2022-11-20T00:56:29;99476.47;;;2.17;81.40
55540;BME280;41384;51.418;7.286;2022-11-20T00:58:54;99465.94;;;2.52;80.03
55540;BME280;41384;51.418;7.286;2022-11-20T01:01:22;99467.38;;;2.13;80.41
55540;BME280;41384;51.418;7.286;2022-11-20T01:03:52;99474.34;;;2.04;81.90
55540;BME280;41384;51.418;7.286;2022-11-20T01:06:19;99478.59;;;2.13;81.56
55540;BME280;41384;51.418;7.286;2022-11-20T01:08:45;99477.50;;;2.24;80.79
55540;BME280;41384;51.418;7.286;2022-11-20T01:11:14;99473.56;;;2.20;81.18
55540;BME280;41384;51.418;7.286;2022-11-20T01:13:40;99472.31;;;2.49;81.01
55540;BME280;41384;51.418;7.286;2022-11-20T01:16:10;99469.31;;;2.19;83.51
55540;BME280;41384;51.418;7.286;2022-11-20T01:18:37;99459.28;;;2.41;82.69
55540;BME280;41384;51.418;7.286;2022-11-20T01:21:06;99444.94;;;2.78;81.37
55540;BME280;41384;51.418;7.286;2022-11-20T01:23:33;99460.53;;;2.20;84.50
55540;BME280;41384;51.418;7.286;2022-11-20T01:26:00;99461.03;;;2.24;85.12
55540;BME280;41384;51.418;7.286;2022-11-20T01:28:26;99464.63;;;2.31;85.53
55540;BME280;41384;51.418;7.286;2022-11-20T01:30:51;99450.16;;;2.37;86.34
55540;BME280;41384;51.418;7.286;2022-11-20T01:33:17;99447.38;;;2.46;87.17
55540;BME280;41384;51.418;7.286;2022-11-20T01:35:42;99443.34;;;2.36;86.16
55540;BME280;41384;51.418;7.286;2022-11-20T01:38:07;99443.81;;;2.81;85.48
55540;BME280;41384;51.418;7.286;2022-11-20T01:40:32;99440.25;;;2.73;84.75
55540;BME280;41384;51.418;7.286;2022-11-20T01:43:12;99442.19;;;2.46;87.57
55540;BME280;41384;51.418;7.286;2022-11-20T01:45:56;99432.38;;;3.06;85.49
55540;BME280;41384;51.418;7.286;2022-11-20T01:48:25;99427.41;;;3.28;82.92
55540;BME280;41384;51.418;7.286;2022-11-20T01:50:52;99426.16;;;3.08;83.48
55540;BME280;41384;51.418;7.286;2022-11-20T01:53:21;99421.34;;;2.80;85.82
55540;BME280;41384;51.418;7.286;2022-11-20T01:55:52;99418.25;;;2.43;85.80
55540;BME280;41384;51.418;7.286;2022-11-20T01:58:21;99423.63;;;2.41;88.31
55540;BME280;41384;51.418;7.286;2022-11-20T02:00:47;99423.13;;;2.71;87.74
55540;BME280;41384;51.418;7.286;2022-11-20T02:03:15;99413.00;;;2.84;86.52
55540;BME280;41384;51.418;7.286;2022-11-20T02:05:46;99410.38;;;2.92;86.59
55540;BME280;41384;51.418;7.286;2022-11-20T02:08:15;99419.38;;;2.82;87.52
55540;BME280;41384;51.418;7.286;2022-11-20T02:10:41;99421.13;;;2.89;87.99
55540;BME280;41384;51.418;7.286;2022-11-20T02:13:06;99422.59;;;3.00;86.72
55540;BME280;41384;51.418;7.286;2022-11-20T02:15:50;99427.34;;;2.72;88.74
55540;BME280;41384;51.418;7.286;2022-11-20T02:18:19;99423.63;;;2.74;89.09
55540;BME280;41384;51.418;7.286;2022-11-20T02:20:47;99425.72;;;2.71;89.68
55540;BME280;41384;51.418;7.286;2022-11-20T02:23:24;99413.28;;;3.06;88.19
55540;BME280;41384;51.418;7.286;2022-11-20T02:25:54;99420.25;;;3.22;86.87
55540;BME280;41384;51.418;7.286;2022-11-20T02:28:20;99411.50;;;3.06;87.93
55540;BME280;41384;51.418;7.286;2022-11-20T02:30:45;99413.94;;;3.16;87.46
55540;BME280;41384;51.418;7.286;2022-11-20T02:33:10;99405.47;;;2.98;88.06
55540;BME280;41384;51.418;7.286;2022-11-20T02:35:41;99408.69;;;3.25;87.30
55540;BME280;41384;51.418;7.286;2022-11-20T02:38:08;99412.59;;;3.29;85.76
55540;BME280;41384;51.418;7.286;2022-11-20T02:40:33;99412.94;;;3.17;88.25
55540;BME280;41384;51.418;7.286;2022-11-20T02:42:58;99415.75;;;2.99;88.01
55540;BME280;41384;51.418;7.286;2022-11-20T02:45:24;99401.75;;;3.00;88.37
55540;BME280;41384;51.418;7.286;2022-11-20T02:47:50;99402.19;;;3.20;87.61
55540;BME280;41384;51.418;7.286;2022-11-20T02:50:16;99403.94;;;3.28;87.98
55540;BME280;41384;51.418;7.286;2022-11-20T02:52:41;99405.09;;;3.26;88.51
55540;BME280;41384;51.418;7.286;2022-11-20T02:55:07;99399.59;;;3.12;90.13
55540;BME280;41384;51.418;7.286;2022-11-20T02:57:33;99391.78;;;3.04;90.39
55540;BME280;41384;51.418;7.286;2022-11-20T02:59:58;99386.66;;;3.27;89.24
55540;BME280;41384;51.418;7.286;2022-11-20T03:02:23;99389.00;;;3.54;87.48
55540;BME280;41384;51.418;7.286;2022-11-20T03:04:49;99389.91;;;3.29;89.02
55540;BME280;41384;51.418;7.286;2022-11-20T03:07:14;99383.47;;;3.48;88.88
55540;BME280;41384;51.418;7.286;2022-11-20T03:09:39;99385.66;;;3.68;87.26
55540;BME280;41384;51.418;7.286;2022-11-20T03:12:05;99381.06;;;3.70;87.63
55540;BME280;41384;51.418;7.286;2022-11-20T03:14:30;99378.59;;;2.97;89.78
55540;BME280;41384;51.418;7.286;2022-11-20T03:16:56;99386.66;;;3.27;89.04
55540;BME280;41384;51.418;7.286;2022-11-20T03:19:21;99384.56;;;3.23;90.34
55540;BME280;41384;51.418;7.286;2022-11-20T03:21:47;99377.00;;;3.36;90.21
55540;BME280;41384;51.418;7.286;2022-11-20T03:24:12;99380.19;;;3.15;89.92
55540;BME280;41384;51.418;7.286;2022-11-20T03:26:38;99378.97;;;3.34;90.43
55540;BME280;41384;51.418;7.286;2022-11-20T03:29:04;99385.41;;;3.55;88.98
55540;BME280;41384;51.418;7.286;2022-11-20T03:31:35;99380.66;;;3.58;87.62
55540;BME280;41384;51.418;7.286;2022-11-20T03:34:02;99371.72;;;3.53;86.28
55540;BME280;41384;51.418;7.286;2022-11-20T03:36:29;99374.19;;;3.46;86.49
55540;BME280;41384;51.418;7.286;2022-11-20T03:38:55;99379.38;;;3.06;89.36
55540;BME280;41384;51.418;7.286;2022-11-20T03:41:23;99375.91;;;3.22;89.20
55540;BME280;41384;51.418;7.286;2022-11-20T03:43:54;99380.56;;;3.43;87.15
55540;BME280;41384;51.418;7.286;2022-11-20T03:46:21;99374.66;;;3.10;89.96
55540;BME280;41384;51.418;7.286;2022-11-20T03:48:47;99369.66;;;3.71;87.53
55540;BME280;41384;51.418;7.286;2022-11-20T03:51:14;99370.47;;;3.72;87.13
55540;BME280;41384;51.418;7.286;2022-11-20T03:53:41;99367.06;;;3.31;90.74
55540;BME280;41384;51.418;7.286;2022-11-20T03:56:07;99367.00;;;3.48;89.42
55540;BME280;41384;51.418;7.286;2022-11-20T03:58:34;99363.19;;;3.27;88.87
55540;BME280;41384;51.418;7.286;2022-11-20T04:01:17;99363.13;;;3.35;89.35
55540;BME280;41384;51.418;7.286;2022-11-20T04:03:43;99364.38;;;3.48;89.15
55540;BME280;41384;51.418;7.286;2022-11-20T04:06:17;99363.78;;;3.69;87.60
55540;BME280;41384;51.418;7.286;2022-11-20T04:08:43;99356.19;;;3.59;87.34
55540;BME280;41384;51.418;7.286;2022-11-20T04:11:14;99352.94;;;3.26;89.31
55540;BME280;41384;51.418;7.286;2022-11-20T04:13:40;99359.47;;;3.21;89.72
55540;BME280;41384;51.418;7.286;2022-11-20T04:16:07;99359.06;;;3.41;89.77
55540;BME280;41384;51.418;7.286;2022-11-20T04:18:33;99362.56;;;3.17;90.75
55540;BME280;41384;51.418;7.286;2022-11-20T04:20:59;99357.81;;;3.29;90.78
55540;BME280;41384;51.418;7.286;2022-11-20T04:23:24;99366.19;;;3.47;89.32
55540;BME280;41384;51.418;7.286;2022-11-20T04:25:50;99359.81;;;3.50;88.80
55540;BME280;41384;51.418;7.286;2022-11-20T04:28:15;99355.81;;;3.39;90.02
55540;BME280;41384;51.418;7.286;2022-11-20T04:30:40;99354.16;;;3.38;90.82
55540;BME280;41384;51.418;7.286;2022-11-20T04:33:06;99361.13;;;3.54;89.66
55540;BME280;41384;51.418;7.286;2022-11-20T04:35:34;99365.38;;;3.47;90.79
55540;BME280;41384;51.418;7.286;2022-11-20T04:37:59;99357.06;;;3.75;88.89
55540;BME280;41384;51.418;7.286;2022-11-20T04:40:24;99362.47;;;3.73;88.47
55540;BME280;41384;51.418;7.286;2022-11-20T04:42:49;99361.47;;;3.74;88.23
55540;BME280;41384;51.418;7.286;2022-11-20T04:45:15;99360.16;;;3.47;89.45
55540;BME280;41384;51.418;7.286;2022-11-20T04:47:40;99366.13;;;3.24;91.92
55540;BME280;41384;51.418;7.286;2022-11-20T04:50:05;99353.69;;;3.66;89.18
55540;BME280;41384;51.418;7.286;2022-11-20T04:52:31;99360.38;;;3.69;87.71
55540;BME280;41384;51.418;7.286;2022-11-20T04:54:56;99366.66;;;3.51;89.25
55540;BME280;41384;51.418;7.286;2022-11-20T04:57:21;99362.03;;;3.30;89.16
55540;BME280;41384;51.418;7.286;2022-11-20T04:59:47;99362.06;;;3.21;89.19
55540;BME280;41384;51.418;7.286;2022-11-20T05:02:12;99355.50;;;3.65;87.26
55540;BME280;41384;51.418;7.286;2022-11-20T05:04:37;99353.41;;;3.61;86.52
55540;BME280;41384;51.418;7.286;2022-11-20T05:07:03;99353.69;;;3.34;87.77
55540;BME280;41384;51.418;7.286;2022-11-20T05:09:29;99354.31;;;3.36;87.76
55540;BME280;41384;51.418;7.286;2022-11-20T05:11:54;99356.78;;;3.38;87.97
55540;BME280;41384;51.418;7.286;2022-11-20T05:14:20;99366.09;;;3.64;86.27
55540;BME280;41384;51.418;7.286;2022-11-20T05:16:45;99362.91;;;3.54;86.60
55540;BME280;41384;51.418;7.286;2022-11-20T05:19:10;99357.47;;;3.63;85.92
55540;BME280;41384;51.418;7.286;2022-11-20T05:21:36;99366.38;;;3.38;87.56
55540;BME280;41384;51.418;7.286;2022-11-20T05:24:01;99369.94;;;3.76;85.29
55540;BME280;41384;51.418;7.286;2022-11-20T05:26:26;99366.28;;;3.62;85.57
55540;BME280;41384;51.418;7.286;2022-11-20T05:28:51;99376.53;;;3.32;87.84
55540;BME280;41384;51.418;7.286;2022-11-20T05:31:19;99368.25;;;3.29;87.64
55540;BME280;41384;51.418;7.286;2022-11-20T05:33:45;99372.50;;;3.61;86.19
55540;BME280;41384;51.418;7.286;2022-11-20T05:36:14;99368.34;;;3.35;88.22
55540;BME280;41384;51.418;7.286;2022-11-20T05:38:40;99366.75;;;3.66;86.69
55540;BME280;41384;51.418;7.286;2022-11-20T05:41:07;99370.13;;;3.43;87.39
55540;BME280;41384;51.418;7.286;2022-11-20T05:43:34;99367.28;;;3.21;89.39
55540;BME280;41384;51.418;7.286;2022-11-20T05:46:00;99366.06;;;3.72;86.18
55540;BME280;41384;51.418;7.286;2022-11-20T05:48:25;99371.41;;;3.47;86.18
55540;BME280;41384;51.418;7.286;2022-11-20T05:50:50;99367.72;;;3.65;85.91
55540;BME280;41384;51.418;7.286;2022-11-20T05:53:16;99364.13;;;3.66;85.50
55540;BME280;41384;51.418;7.286;2022-11-20T05:55:41;99367.44;;;3.60;85.03
55540;BME280;41384;51.418;7.286;2022-11-20T05:58:06;99363.34;;;3.65;85.61
55540;BME280;41384;51.418;7.286;2022-11-20T06:00:32;99359.88;;;3.33;86.95
55540;BME280;41384;51.418;7.286;2022-11-20T06:02:57;99357.25;;;3.42;86.85
55540;BME280;41384;51.418;7.286;2022-11-20T06:05:22;99360.13;;;3.55;85.72
55540;BME280;41384;51.418;7.286;2022-11-20T06:07:47;99350.78;;;3.29;87.32
55540;BME280;41384;51.418;7.286;2022-11-20T06:10:13;99354.72;;;3.25;87.70
55540;BME280;41384;51.418;7.286;2022-11-20T06:12:38;99363.88;;;3.53;85.15
55540;BME280;41384;51.418;7.286;2022-11-20T06:15:04;99364.53;;;3.55;84.83
55540;BME280;41384;51.418;7.286;2022-11-20T06:17:30;99355.75;;;3.47;83.96
55540;BME280;41384;51.418;7.286;2022-11-20T06:19:55;99355.31;;;3.67;81.49
55540;BME280;41384;51.418;7.286;2022-11-20T06:22:21;99355.63;;;3.41;83.01
55540;BME280;41384;51.418;7.286;2022-11-20T06:24:46;99353.06;;;3.64;82.51
55540;BME280;41384;51.418;7.286;2022-11-20T06:27:11;99351.91;;;3.67;82.52
55540;BME280;41384;51.418;7.286;2022-11-20T06:29:36;99359.66;;;3.52;82.82
55540;BME280;41384;51.418;7.286;2022-11-20T06:32:02;99363.56;;;3.16;83.90
55540;BME280;41384;51.418;7.286;2022-11-20T06:34:27;99360.50;;;3.44;83.26
55540;BME280;41384;51.418;7.286;2022-11-20T06:36:52;99366.16;;;3.56;80.39
55540;BME280;41384;51.418;7.286;2022-11-20T06:39:17;99358.78;;;3.28;81.88
55540;BME280;41384;51.418;7.286;2022-11-20T06:41:43;99363.09;;;3.04;84.42
55540;BME280;41384;51.418;7.286;2022-11-20T06:44:08;99364.16;;;3.26;82.41
55540;BME280;41384;51.418;7.286;2022-11-20T06:46:33;99369.22;;;3.28;82.58
55540;BME280;41384;51.418;7.286;2022-11-20T06:48:58;99381.78;;;3.24;82.39
55540;BME280;41384;51.418;7.286;2022-11-20T06:51:24;99371.78;;;3.36;80.51
55540;BME280;41384;51.418;7.286;2022-11-20T06:53:50;99378.09;;;3.42;78.60
55540;BME280;41384;51.418;7.286;2022-11-20T06:56:15;99369.75;;;3.15;80.49
55540;BME280;41384;51.418;7.286;2022-11-20T06:58:40;99375.13;;;3.21;80.22
55540;BME280;41384;51.418;7.286;2022-11-20T07:01:09;99369.97;;;2.88;79.67
55540;BME280;41384;51.418;7.286;2022-11-20T07:03:35;99368.91;;;2.74;81.41
55540;BME280;41384;51.418;7.286;2022-11-20T07:06:01;99370.03;;;2.63;82.33
55540;BME280;41384;51.418;7.286;2022-11-20T07:08:27;99358.13;;;2.86;79.76
55540;BME280;41384;51.418;7.286;2022-11-20T07:10:57;99365.59;;;2.89;80.13
55540;BME280;41384;51.418;7.286;2022-11-20T07:13:22;99368.91;;;2.50;80.70
55540;BME280;41384;51.418;7.286;2022-11-20T07:15:47;99367.91;;;2.59;81.75
55540;BME280;41384;51.418;7.286;2022-11-20T07:18:13;99376.72;;;2.00;83.19
55540;BME280;41384;51.418;7.286;2022-11-20T07:20:38;99383.41;;;2.19;83.20
55540;BME280;41384;51.418;7.286;2022-11-20T07:23:03;99383.38;;;2.11;83.30
55540;BME280;41384;51.418;7.286;2022-11-20T07:25:28;99387.34;;;2.23;83.54
55540;BME280;41384;51.418;7.286;2022-11-20T07:27:59;99392.69;;;2.22;83.30
55540;BME280;41384;51.418;7.286;2022-11-20T07:30:27;99386.66;;;2.46;81.86
55540;BME280;41384;51.418;7.286;2022-11-20T07:32:53;99395.47;;;2.28;82.89
55540;BME280;41384;51.418;7.286;2022-11-20T07:35:19;99392.03;;;2.11;84.53
55540;BME280;41384;51.418;7.286;2022-11-20T07:37:44;99389.91;;;2.65;82.71
55540;BME280;41384;51.418;7.286;2022-11-20T07:40:14;99392.13;;;2.92;80.76
55540;BME280;41384;51.418;7.286;2022-11-20T07:42:47;99399.59;;;3.04;78.41
55540;BME280;41384;51.418;7.286;2022-11-20T07:45:13;99393.41;;;2.97;79.89
55540;BME280;41384;51.418;7.286;2022-11-20T07:47:39;99393.66;;;2.79;80.40
55540;BME280;41384;51.418;7.286;2022-11-20T07:50:04;99392.31;;;2.91;79.35
55540;BME280;41384;51.418;7.286;2022-11-20T07:52:30;99391.69;;;2.72;80.60
55540;BME280;41384;51.418;7.286;2022-11-20T07:54:55;99383.88;;;2.81;80.12
55540;BME280;41384;51.418;7.286;2022-11-20T07:57:20;99393.50;;;2.39;81.99
55540;BME280;41384;51.418;7.286;2022-11-20T07:59:45;99394.47;;;2.71;81.98
55540;BME280;41384;51.418;7.286;2022-11-20T08:02:11;99395.66;;;3.08;79.64
55540;BME280;41384;51.418;7.286;2022-11-20T08:04:36;99392.44;;;2.98;79.21
55540;BME280;41384;51.418;7.286;2022-11-20T08:07:01;99391.38;;;3.32;77.44
55540;BME280;41384;51.418;7.286;2022-11-20T08:09:27;99388.53;;;3.10;78.16
55540;BME280;41384;51.418;7.286;2022-11-20T08:11:53;99388.50;;;3.18;77.87
55540;BME280;41384;51.418;7.286;2022-11-20T08:14:38;99381.88;;;3.39;77.10
55540;BME280;41384;51.418;7.286;2022-11-20T08:17:03;99383.59;;;3.24;78.59
55540;BME280;41384;51.418;7.286;2022-11-20T08:19:28;99386.03;;;3.17;79.49
55540;BME280;41384;51.418;7.286;2022-11-20T08:21:54;99382.50;;;3.01;80.91
55540;BME280;41384;51.418;7.286;2022-11-20T08:24:20;99377.75;;;3.05;80.92
55540;BME280;41384;51.418;7.286;2022-11-20T08:26:45;99378.38;;;3.24;79.57
55540;BME280;41384;51.418;7.286;2022-11-20T08:29:10;99381.69;;;3.41;79.39
55540;BME280;41384;51.418;7.286;2022-11-20T08:31:36;99377.91;;;3.12;81.11
55540;BME280;41384;51.418;7.286;2022-11-20T08:34:01;99373.91;;;3.32;79.00
55540;BME280;41384;51.418;7.286;2022-11-20T08:36:26;99378.44;;;3.39;80.31
55540;BME280;41384;51.418;7.286;2022-11-20T08:38:54;99374.69;;;3.41;79.50
55540;BME280;41384;51.418;7.286;2022-11-20T08:41:19;99373.97;;;3.56;78.90
55540;BME280;41384;51.418;7.286;2022-11-20T08:44:02;99369.69;;;3.63;79.83
55540;BME280;41384;51.418;7.286;2022-11-20T08:46:34;99372.34;;;3.15;81.22
55540;BME280;41384;51.418;7.286;2022-11-20T08:49:02;99375.59;;;3.57;79.43
55540;BME280;41384;51.418;7.286;2022-11-20T08:51:28;99370.72;;;4.08;75.45
55540;BME280;41384;51.418;7.286;2022-11-20T08:53:53;99363.41;;;4.04;74.58
55540;BME280;41384;51.418;7.286;2022-11-20T08:56:18;99372.16;;;3.88;74.16
55540;BME280;41384;51.418;7.286;2022-11-20T08:58:44;99360.31;;;3.77;74.39
55540;BME280;41384;51.418;7.286;2022-11-20T09:01:09;99369.69;;;3.63;74.89
55540;BME280;41384;51.418;7.286;2022-11-20T09:03:35;99374.84;;;4.03;72.81
55540;BME280;41384;51.418;7.286;2022-11-20T09:06:02;99379.25;;;4.02;72.20
55540;BME280;41384;51.418;7.286;2022-11-20T09:08:29;99379.91;;;4.04;72.54
55540;BME280;41384;51.418;7.286;2022-11-20T09:10:55;99382.44;;;4.13;71.79
55540;BME280;41384;51.418;7.286;2022-11-20T09:13:21;99382.69;;;4.26;70.17
55540;BME280;41384;51.418;7.286;2022-11-20T09:15:47;99383.75;;;4.32;70.98
55540;BME280;41384;51.418;7.286;2022-11-20T09:18:12;99384.66;;;4.24;70.67
55540;BME280;41384;51.418;7.286;2022-11-20T09:20:38;99384.31;;;4.27;71.19
55540;BME280;41384;51.418;7.286;2022-11-20T09:23:03;99377.72;;;4.55;70.25
55540;BME280;41384;51.418;7.286;2022-11-20T09:25:29;99374.91;;;4.56;69.74
55540;BME280;41384;51.418;7.286;2022-11-20T09:27:55;99370.13;;;4.21;70.39
55540;BME280;41384;51.418;7.286;2022-11-20T09:30:21;99372.63;;;4.53;70.08
55540;BME280;41384;51.418;7.286;2022-11-20T09:32:46;99373.28;;;4.17;70.83
55540;BME280;41384;51.418;7.286;2022-11-20T09:35:11;99372.16;;;4.34;71.14
55540;BME280;41384;51.418;7.286;2022-11-20T09:37:36;99369.97;;;4.38;72.03
55540;BME280;41384;51.418;7.286;2022-11-20T09:40:02;99359.16;;;4.26;72.15
55540;BME280;41384;51.418;7.286;2022-11-20T09:45:21;99355.88;;;4.62;71.78
55540;BME280;41384;51.418;7.286;2022-11-20T09:48:00;99354.63;;;4.58;72.18
55540;BME280;41384;51.418;7.286;2022-11-20T09:50:35;99348.34;;;4.82;71.97
55540;BME280;41384;51.418;7.286;2022-11-20T09:55:56;99344.81;;;5.05;72.37
55540;BME280;41384;51.418;7.286;2022-11-20T10:01:16;99338.25;;;4.94;73.03
55540;BME280;41384;51.418;7.286;2022-11-20T10:03:58;99331.56;;;5.07;72.82
55540;BME280;41384;51.418;7.286;2022-11-20T10:09:34;99335.72;;;5.01;73.68
55540;BME280;41384;51.418;7.286;2022-11-20T10:12:14;99333.91;;;5.02;73.83
55540;BME280;41384;51.418;7.286;2022-11-20T10:17:33;99336.88;;;4.68;74.69
55540;BME280;41384;51.418;7.286;2022-11-20T10:23:04;99334.09;;;5.00;74.54
55540;BME280;41384;51.418;7.286;2022-11-20T10:25:55;99329.13;;;5.05;74.74
55540;BME280;41384;51.418;7.286;2022-11-20T10:28:46;99318.28;;;5.08;73.73
55540;BME280;41384;51.418;7.286;2022-11-20T10:31:30;99311.00;;;5.04;75.66
55540;BME280;41384;51.418;7.286;2022-11-20T10:33:57;99316.91;;;5.28;75.00
55540;BME280;41384;51.418;7.286;2022-11-20T10:36:28;99306.34;;;5.36;72.91
55540;BME280;41384;51.418;7.286;2022-11-20T10:39:10;99308.03;;;5.44;72.30
55540;BME280;41384;51.418;7.286;2022-11-20T10:41:41;99309.06;;;5.28;74.32
55540;BME280;41384;51.418;7.286;2022-11-20T10:44:15;99310.59;;;5.22;73.47
55540;BME280;41384;51.418;7.286;2022-11-20T10:47:01;99297.50;;;5.37;73.73
55540;BME280;41384;51.418;7.286;2022-11-20T10:49:26;99299.63;;;5.70;71.94
55540;BME280;41384;51.418;7.286;2022-11-20T10:55:02;99293.72;;;5.39;72.25
55540;BME280;41384;51.418;7.286;2022-11-20T11:00:25;99285.22;;;5.37;72.24
55540;BME280;41384;51.418;7.286;2022-11-20T11:02:52;99292.88;;;5.39;72.15
55540;BME280;41384;51.418;7.286;2022-11-20T11:05:41;99299.13;;;5.23;73.63
55540;BME280;41384;51.418;7.286;2022-11-20T11:08:14;99292.09;;;5.23;74.36
55540;BME280;41384;51.418;7.286;2022-11-20T11:10:46;99279.31;;;5.50;72.94
55540;BME280;41384;51.418;7.286;2022-11-20T11:13:24;99280.19;;;5.58;71.62
55540;BME280;41384;51.418;7.286;2022-11-20T11:15:50;99274.38;;;5.62;71.67
55540;BME280;41384;51.418;7.286;2022-11-20T11:18:27;99264.97;;;5.68;70.33
55540;BME280;41384;51.418;7.286;2022-11-20T11:20:54;99267.97;;;5.65;71.08
55540;BME280;41384;51.418;7.286;2022-11-20T11:23:37;99263.47;;;5.80;70.20
55540;BME280;41384;51.418;7.286;2022-11-20T11:26:20;99255.56;;;5.74;69.78
55540;BME280;41384;51.418;7.286;2022-11-20T11:28:54;99259.09;;;5.88;68.98
55540;BME280;41384;51.418;7.286;2022-11-20T11:31:37;99254.06;;;5.64;68.94
55540;BME280;41384;51.418;7.286;2022-11-20T11:34:17;99256.84;;;5.63;68.93
55540;BME280;41384;51.418;7.286;2022-11-20T11:36:57;99242.00;;;5.70;68.79
55540;BME280;41384;51.418;7.286;2022-11-20T11:39:23;99230.34;;;5.94;68.55
55540;BME280;41384;51.418;7.286;2022-11-20T11:41:50;99229.09;;;5.90;69.33
55540;BME280;41384;51.418;7.286;2022-11-20T11:44:20;99228.22;;;5.83;69.46
55540;BME280;41384;51.418;7.286;2022-11-20T11:47:09;99231.94;;;5.45;69.56
55540;BME280;41384;51.418;7.286;2022-11-20T11:49:36;99232.63;;;5.54;69.85
55540;BME280;41384;51.418;7.286;2022-11-20T12:00:10;99199.50;;;5.96;69.44
55540;BME280;41384;51.418;7.286;2022-11-20T12:03:00;99195.81;;;5.84;69.13
55540;BME280;41384;51.418;7.286;2022-11-20T12:05:40;99197.81;;;5.82;69.17
55540;BME280;41384;51.418;7.286;2022-11-20T12:08:23;99199.63;;;5.81;69.36
55540;BME280;41384;51.418;7.286;2022-11-20T12:14:01;99184.41;;;5.98;69.14
55540;BME280;41384;51.418;7.286;2022-11-20T12:16:30;99189.53;;;6.07;69.27
55540;BME280;41384;51.418;7.286;2022-11-20T12:18:58;99180.38;;;5.96;70.38
55540;BME280;41384;51.418;7.286;2022-11-20T12:23:53;99165.56;;;6.10;70.23
55540;BME280;41384;51.418;7.286;2022-11-20T12:26:44;99164.34;;;5.77;71.16
55540;BME280;41384;51.418;7.286;2022-11-20T12:35:07;99162.97;;;5.81;70.98
55540;BME280;41384;51.418;7.286;2022-11-20T12:38:15;99157.59;;;5.96;71.10
55540;BME280;41384;51.418;7.286;2022-11-20T12:41:02;99152.25;;;5.48;71.93
55540;BME280;41384;51.418;7.286;2022-11-20T12:43:37;99153.38;;;5.67;71.32
55540;BME280;41384;51.418;7.286;2022-11-20T12:47:01;99153.16;;;5.40;72.30
55540;BME280;41384;51.418;7.286;2022-11-20T12:49:38;99158.50;;;5.53;72.03
55540;BME280;41384;51.418;7.286;2022-11-20T12:52:33;99155.34;;;5.58;72.27
55540;BME280;41384;51.418;7.286;2022-11-20T13:06:05;99132.81;;;5.64;72.64
55540;BME280;41384;51.418;7.286;2022-11-20T13:08:35;99126.41;;;5.73;72.93
55540;BME280;41384;51.418;7.286;2022-11-20T13:11:14;99121.38;;;5.43;74.20
55540;BME280;41384;51.418;7.286;2022-11-20T13:14:02;99114.63;;;5.84;72.76
55540;BME280;41384;51.418;7.286;2022-11-20T13:17:07;99101.22;;;5.72;72.31
55540;BME280;41384;51.418;7.286;2022-11-20T13:19:36;99090.28;;;5.62;73.60
55540;BME280;41384;51.418;7.286;2022-11-20T13:22:02;99082.66;;;5.60;73.98
55540;BME280;41384;51.418;7.286;2022-11-20T13:24:29;99084.06;;;5.63;73.23
55540;BME280;41384;51.418;7.286;2022-11-20T13:29:42;99068.56;;;5.33;74.62
55540;BME280;41384;51.418;7.286;2022-11-20T13:32:20;99073.50;;;5.49;74.60
55540;BME280;41384;51.418;7.286;2022-11-20T13:35:00;99062.56;;;5.67;73.17
55540;BME280;41384;51.418;7.286;2022-11-20T13:44:15;99065.03;;;5.47;73.58
55540;BME280;41384;51.418;7.286;2022-11-20T13:46:49;99064.56;;;5.72;72.84
55540;BME280;41384;51.418;7.286;2022-11-20T13:49:37;99061.72;;;5.67;73.48
55540;BME280;41384;51.418;7.286;2022-11-20T13:55:00;99052.38;;;5.51;74.24
55540;BME280;41384;51.418;7.286;2022-11-20T14:00:24;99041.94;;;5.58;73.86
55540;BME280;41384;51.418;7.286;2022-11-20T14:05:37;99028.00;;;5.86;73.51
55540;BME280;41384;51.418;7.286;2022-11-20T14:08:05;99025.13;;;5.74;74.21
55540;BME280;41384;51.418;7.286;2022-11-20T14:10:31;99024.97;;;5.47;75.29
55540;BME280;41384;51.418;7.286;2022-11-20T14:13:10;99016.34;;;5.53;75.34
55540;BME280;41384;51.418;7.286;2022-11-20T14:15:38;99009.03;;;5.77;74.86
55540;BME280;41384;51.418;7.286;2022-11-20T14:18:19;99006.19;;;5.72;75.17
55540;BME280;41384;51.418;7.286;2022-11-20T14:20:45;99000.66;;;5.60;76.77
55540;BME280;41384;51.418;7.286;2022-11-20T14:23:26;98987.63;;;5.73;76.11
55540;BME280;41384;51.418;7.286;2022-11-20T14:25:52;98991.25;;;5.72;76.67
55540;BME280;41384;51.418;7.286;2022-11-20T14:28:24;98997.81;;;5.54;77.94
55540;BME280;41384;51.418;7.286;2022-11-20T14:30:50;98994.53;;;5.81;76.95